createdAt,value
2016-08-16T00:00:07.680Z,0.00
2016-08-16T00:01:08.359Z,0.00
2016-08-16T00:02:08.738Z,0.00
2016-08-16T00:03:09.429Z,0.00
2016-08-16T00:04:10.110Z,0.00
2016-08-16T00:05:10.324Z,0.00
2016-08-16T00:06:11.169Z,0.00
2016-08-16T00:07:11.678Z,0.00
2016-08-16T00:08:12.045Z,0.00
2016-08-16T00:09:12.429Z,0.00
2016-08-16T00:10:12.808Z,0.00
2016-08-16T00:11:13.778Z,0.00
2016-08-16T00:12:14.026Z,0.00
2016-08-16T00:13:14.396Z,0.00
2016-08-16T00:14:15.069Z,0.00
2016-08-16T00:15:15.903Z,0.00
2016-08-16T00:16:16.261Z,0.00
2016-08-16T00:17:16.955Z,0.00
2016-08-16T00:18:17.324Z,0.00
2016-08-16T00:19:17.706Z,0.00
2016-08-16T00:20:18.416Z,0.00
2016-08-16T00:21:18.753Z,0.00
2016-08-16T00:22:19.280Z,0.00
2016-08-16T00:23:20.132Z,0.00
2016-08-16T00:24:20.367Z,0.00
2016-08-16T00:25:20.862Z,0.00
2016-08-16T00:26:21.399Z,0.00
2016-08-16T00:27:22.240Z,0.00
2016-08-16T00:28:22.331Z,0.00
2016-08-16T00:29:22.838Z,0.00
2016-08-16T00:30:23.673Z,0.00
2016-08-16T00:31:24.358Z,0.00
2016-08-16T00:32:24.871Z,0.00
2016-08-16T00:33:25.549Z,0.00
2016-08-16T00:34:25.479Z,0.00
2016-08-16T00:35:26.755Z,0.00
2016-08-16T00:36:26.839Z,0.00
2016-08-16T00:37:27.378Z,0.00
2016-08-16T00:38:27.751Z,0.00
2016-08-16T00:39:28.434Z,0.00
2016-08-16T00:40:29.393Z,0.00
2016-08-16T00:41:29.470Z,0.00
2016-08-16T00:42:29.873Z,0.00
2016-08-16T00:43:30.674Z,0.00
2016-08-16T00:44:31.060Z,0.00
2016-08-16T00:45:31.726Z,0.00
2016-08-16T00:46:31.990Z,0.00
2016-08-16T00:47:32.683Z,0.00
2016-08-16T00:48:33.035Z,0.00
2016-08-16T00:49:33.852Z,0.00
2016-08-16T00:50:34.233Z,0.00
2016-08-16T00:51:34.459Z,0.00
2016-08-16T00:52:35.157Z,0.00
2016-08-16T00:53:35.652Z,0.00
2016-08-16T00:54:36.034Z,0.00
2016-08-16T00:55:36.725Z,0.00
2016-08-16T00:56:37.106Z,0.00
2016-08-16T00:57:37.903Z,0.00
2016-08-16T00:58:38.604Z,0.00
2016-08-16T00:59:39.270Z,0.00
2016-08-16T01:00:39.217Z,0.00
2016-08-16T01:01:39.871Z,0.00
2016-08-16T01:02:40.562Z,0.00
2016-08-16T01:03:41.078Z,0.00
2016-08-16T01:04:41.468Z,0.00
2016-08-16T01:05:42.000Z,0.00
2016-08-16T01:06:42.670Z,0.00
2016-08-16T01:07:43.082Z,0.00
2016-08-16T01:08:43.759Z,0.00
2016-08-16T01:09:44.093Z,0.00
2016-08-16T01:10:44.630Z,0.00
2016-08-16T01:11:45.317Z,0.00
2016-08-16T01:12:45.845Z,0.00
2016-08-16T01:13:46.197Z,0.00
2016-08-16T01:14:47.179Z,0.00
2016-08-16T01:15:47.429Z,0.00
2016-08-16T01:16:48.088Z,0.00
2016-08-16T01:17:48.327Z,0.00
2016-08-16T01:18:49.140Z,0.00
2016-08-16T01:19:49.416Z,0.00
2016-08-16T01:20:50.040Z,0.00
2016-08-16T01:21:50.720Z,0.00
2016-08-16T01:22:51.118Z,0.00
2016-08-16T01:23:51.631Z,0.00
2016-08-16T01:24:52.486Z,0.00
2016-08-16T01:25:52.986Z,0.00
2016-08-16T01:26:53.245Z,0.00
2016-08-16T01:27:53.886Z,0.00
2016-08-16T01:28:54.420Z,0.00
2016-08-16T01:29:54.666Z,0.00
2016-08-16T01:30:55.174Z,0.00
2016-08-16T01:31:55.746Z,0.00
2016-08-16T01:32:57.293Z,0.00
2016-08-16T01:33:57.070Z,0.00
2016-08-16T01:34:57.581Z,0.00
2016-08-16T01:35:57.661Z,0.00
2016-08-16T01:36:58.482Z,0.00
2016-08-16T01:37:58.895Z,0.00
2016-08-16T01:38:59.247Z,0.00
2016-08-16T01:39:59.950Z,0.00
2016-08-16T01:41:03.171Z,0.00
2016-08-16T01:42:00.862Z,0.00
2016-08-16T01:43:01.690Z,0.00
2016-08-16T01:44:02.060Z,0.00
2016-08-16T01:45:02.724Z,0.00
2016-08-16T01:46:02.960Z,0.00
2016-08-16T01:47:03.491Z,0.00
2016-08-16T01:48:04.008Z,0.00
2016-08-16T01:49:05.878Z,0.00
2016-08-16T01:50:05.359Z,0.00
2016-08-16T01:51:05.889Z,0.00
2016-08-16T01:52:06.403Z,0.00
2016-08-16T01:53:06.928Z,0.00
2016-08-16T01:54:07.320Z,0.00
2016-08-16T01:55:07.831Z,0.00
2016-08-16T01:56:08.672Z,0.00
2016-08-16T01:57:08.758Z,0.00
2016-08-16T01:58:09.420Z,0.00
2016-08-16T01:59:11.160Z,0.00
2016-08-16T02:00:10.808Z,0.00
2016-08-16T02:01:11.163Z,0.00
2016-08-16T02:02:11.541Z,0.00
2016-08-16T02:03:11.928Z,0.00
2016-08-16T02:04:12.613Z,0.00
2016-08-16T02:05:13.252Z,0.00
2016-08-16T02:06:13.628Z,0.00
2016-08-16T02:07:14.305Z,0.00
2016-08-16T02:08:15.001Z,0.00
2016-08-16T02:09:15.357Z,0.00
2016-08-16T02:10:15.952Z,0.00
2016-08-16T02:11:16.457Z,0.00
2016-08-16T02:12:16.968Z,0.00
2016-08-16T02:13:17.470Z,0.00
2016-08-16T02:14:18.141Z,0.00
2016-08-16T02:15:18.520Z,0.00
2016-08-16T02:16:18.762Z,0.00
2016-08-16T02:17:19.465Z,0.00
2016-08-16T02:18:20.118Z,0.00
2016-08-16T02:19:20.364Z,0.00
2016-08-16T02:20:21.172Z,0.00
2016-08-16T02:21:21.547Z,0.00
2016-08-16T02:22:22.097Z,0.00
2016-08-16T02:23:22.618Z,0.00
2016-08-16T02:24:23.280Z,0.00
2016-08-16T02:25:23.715Z,0.00
2016-08-16T02:26:24.180Z,0.00
2016-08-16T02:27:24.921Z,0.00
2016-08-16T02:28:25.537Z,0.00
2016-08-16T02:29:26.089Z,0.00
2016-08-16T02:30:26.614Z,0.00
2016-08-16T02:31:26.975Z,0.00
2016-08-16T02:32:27.500Z,0.00
2016-08-16T02:33:27.767Z,0.00
2016-08-16T02:34:28.568Z,0.00
2016-08-16T02:35:28.958Z,0.00
2016-08-16T02:36:29.607Z,0.00
2016-08-16T02:37:30.140Z,0.00
2016-08-16T02:38:30.662Z,0.00
2016-08-16T02:39:31.216Z,0.00
2016-08-16T02:40:31.743Z,0.00
2016-08-16T02:41:32.146Z,0.00
2016-08-16T02:42:32.777Z,0.00
2016-08-16T02:43:33.348Z,0.00
2016-08-16T02:44:33.829Z,0.00
2016-08-16T02:45:34.209Z,0.00
2016-08-16T02:46:34.619Z,0.00
2016-08-16T02:47:35.153Z,0.00
2016-08-16T02:48:36.125Z,0.00
2016-08-16T02:49:36.771Z,0.00
2016-08-16T02:50:37.173Z,0.00
2016-08-16T02:51:37.390Z,0.00
2016-08-16T02:52:37.931Z,0.00
2016-08-16T02:53:38.444Z,0.00
2016-08-16T02:54:38.825Z,0.00
2016-08-16T02:55:39.843Z,0.00
2016-08-16T02:56:40.031Z,0.00
2016-08-16T02:57:40.707Z,0.00
2016-08-16T02:58:41.235Z,0.00
2016-08-16T02:59:41.912Z,0.00
2016-08-16T03:00:42.457Z,0.00
2016-08-16T03:01:42.858Z,0.00
2016-08-16T03:02:43.349Z,0.00
2016-08-16T03:03:43.716Z,0.00
2016-08-16T03:04:44.393Z,0.00
2016-08-16T03:05:45.095Z,0.00
2016-08-16T03:06:47.546Z,0.00
2016-08-16T03:07:46.116Z,0.00
2016-08-16T03:08:46.200Z,0.00
2016-08-16T03:09:47.026Z,0.00
2016-08-16T03:10:47.693Z,0.00
2016-08-16T03:11:48.100Z,0.00
2016-08-16T03:12:48.474Z,0.00
2016-08-16T03:13:49.145Z,0.00
2016-08-16T03:14:49.505Z,0.00
2016-08-16T03:15:50.200Z,0.00
2016-08-16T03:16:51.029Z,0.00
2016-08-16T03:17:51.097Z,0.00
2016-08-16T03:18:51.619Z,0.00
2016-08-16T03:19:52.308Z,0.00
2016-08-16T03:20:52.970Z,0.00
2016-08-16T03:21:53.372Z,0.00
2016-08-16T03:22:53.622Z,0.00
2016-08-16T03:23:54.269Z,0.00
2016-08-16T03:24:54.949Z,0.00
2016-08-16T03:25:55.457Z,0.00
2016-08-16T03:26:56.005Z,0.00
2016-08-16T03:27:56.209Z,0.00
2016-08-16T03:28:57.050Z,0.00
2016-08-16T03:29:57.274Z,0.00
2016-08-16T03:30:57.970Z,0.00
2016-08-16T03:31:58.490Z,0.00
2016-08-16T03:32:59.293Z,0.00
2016-08-16T03:33:59.553Z,0.00
2016-08-16T03:34:59.915Z,0.00
2016-08-16T03:36:00.586Z,0.00
2016-08-16T03:37:01.113Z,0.00
2016-08-16T03:38:01.936Z,0.00
2016-08-16T03:39:02.013Z,0.00
2016-08-16T03:40:02.724Z,0.00
2016-08-16T03:41:03.383Z,0.00
2016-08-16T03:42:03.743Z,0.00
2016-08-16T03:43:04.301Z,0.00
2016-08-16T03:44:04.847Z,0.00
2016-08-16T03:45:05.658Z,0.00
2016-08-16T03:46:06.002Z,0.00
2016-08-16T03:47:06.415Z,0.00
2016-08-16T03:48:07.063Z,0.00
2016-08-16T03:49:07.885Z,0.00
2016-08-16T03:50:07.844Z,0.00
2016-08-16T03:51:08.368Z,0.00
2016-08-16T03:52:11.563Z,0.00
2016-08-16T03:53:09.419Z,0.00
2016-08-16T03:54:10.387Z,0.00
2016-08-16T03:55:10.752Z,0.00
2016-08-16T03:56:11.285Z,0.00
2016-08-16T03:57:11.971Z,0.00
2016-08-16T03:58:12.639Z,0.00
2016-08-16T03:59:13.029Z,0.00
2016-08-16T04:00:13.277Z,0.00
2016-08-16T04:01:14.068Z,0.00
2016-08-16T04:02:14.606Z,0.00
2016-08-16T04:03:17.371Z,0.00
2016-08-16T04:04:15.374Z,0.00
2016-08-16T04:05:15.734Z,0.00
2016-08-16T04:06:16.558Z,0.00
2016-08-16T04:07:17.091Z,0.00
2016-08-16T04:08:17.647Z,0.00
2016-08-16T04:09:18.445Z,0.00
2016-08-16T04:10:18.998Z,0.00
2016-08-16T04:11:19.055Z,0.00
2016-08-16T04:12:19.880Z,0.00
2016-08-16T04:13:20.100Z,0.00
2016-08-16T04:14:20.949Z,0.00
2016-08-16T04:15:21.465Z,0.00
2016-08-16T04:16:21.549Z,0.00
2016-08-16T04:17:22.530Z,0.00
2016-08-16T04:18:23.045Z,0.00
2016-08-16T04:19:23.599Z,0.00
2016-08-16T04:20:24.129Z,0.00
2016-08-16T04:21:24.497Z,0.00
2016-08-16T04:22:25.033Z,0.00
2016-08-16T04:23:25.678Z,0.00
2016-08-16T04:24:26.231Z,0.00
2016-08-16T04:25:26.591Z,1.00
2016-08-16T04:26:27.294Z,1.00
2016-08-16T04:27:27.511Z,1.00
2016-08-16T04:28:28.025Z,1.00
2016-08-16T04:29:28.578Z,2.00
2016-08-16T04:30:29.230Z,2.00
2016-08-16T04:31:29.610Z,2.00
2016-08-16T04:32:30.744Z,2.00
2016-08-16T04:33:30.510Z,2.00
2016-08-16T04:34:31.184Z,2.00
2016-08-16T04:35:31.734Z,2.00
2016-08-16T04:36:32.543Z,2.00
2016-08-16T04:37:32.944Z,3.00
2016-08-16T04:38:33.477Z,3.00
2016-08-16T04:39:33.705Z,3.00
2016-08-16T04:40:34.351Z,3.00
2016-08-16T04:41:34.767Z,3.00
2016-08-16T04:42:35.715Z,3.00
2016-08-16T04:43:36.105Z,3.00
2016-08-16T04:44:36.497Z,3.00
2016-08-16T04:45:36.999Z,4.00
2016-08-16T04:46:37.525Z,4.00
2016-08-16T04:47:38.349Z,4.00
2016-08-16T04:48:38.584Z,4.00
2016-08-16T04:49:39.432Z,4.00
2016-08-16T04:50:39.641Z,5.00
2016-08-16T04:51:40.346Z,5.00
2016-08-16T04:52:40.719Z,5.00
2016-08-16T04:53:41.398Z,5.00
2016-08-16T04:54:41.917Z,5.00
2016-08-16T04:55:42.297Z,6.00
2016-08-16T04:56:42.976Z,6.00
2016-08-16T04:57:43.638Z,6.00
2016-08-16T04:58:44.018Z,6.00
2016-08-16T04:59:44.568Z,6.00
2016-08-16T05:00:44.790Z,6.00
2016-08-16T05:01:45.736Z,6.00
2016-08-16T05:02:46.262Z,7.00
2016-08-16T05:03:46.804Z,7.00
2016-08-16T05:04:46.871Z,7.00
2016-08-16T05:05:47.836Z,7.00
2016-08-16T05:06:48.512Z,7.00
2016-08-16T05:07:48.892Z,7.00
2016-08-16T05:08:49.417Z,7.00
2016-08-16T05:09:49.943Z,7.00
2016-08-16T05:10:50.186Z,7.00
2016-08-16T05:11:51.018Z,8.00
2016-08-16T05:12:51.531Z,8.00
2016-08-16T05:13:51.609Z,8.00
2016-08-16T05:14:52.583Z,8.00
2016-08-16T05:15:52.848Z,8.00
2016-08-16T05:16:53.497Z,8.00
2016-08-16T05:17:54.036Z,9.00
2016-08-16T05:18:54.430Z,9.00
2016-08-16T05:19:55.106Z,10.00
2016-08-16T05:20:55.647Z,10.00
2016-08-16T05:21:55.987Z,10.00
2016-08-16T05:22:56.826Z,10.00
2016-08-16T05:23:57.218Z,10.00
2016-08-16T05:24:57.434Z,10.00
2016-08-16T05:25:58.256Z,10.00
2016-08-16T05:26:58.787Z,10.00
2016-08-16T05:27:59.310Z,10.00
2016-08-16T05:28:59.551Z,10.00
2016-08-16T05:30:00.220Z,10.00
2016-08-16T05:31:02.685Z,10.00
2016-08-16T05:32:01.433Z,9.00
2016-08-16T05:33:02.281Z,9.00
2016-08-16T05:34:02.329Z,10.00
2016-08-16T05:35:02.852Z,10.00
2016-08-16T05:36:03.525Z,10.00
2016-08-16T05:37:04.066Z,10.00
2016-08-16T05:38:04.450Z,10.00
2016-08-16T05:39:04.987Z,10.00
2016-08-16T05:40:05.785Z,11.00
2016-08-16T05:41:06.195Z,11.00
2016-08-16T05:42:06.420Z,11.00
2016-08-16T05:43:07.098Z,12.00
2016-08-16T05:44:07.896Z,16.00
2016-08-16T05:45:08.275Z,15.00
2016-08-16T05:46:08.831Z,16.00
2016-08-16T05:47:09.177Z,15.00
2016-08-16T05:48:09.740Z,17.00
2016-08-16T05:49:10.112Z,20.00
2016-08-16T05:50:10.758Z,27.00
2016-08-16T05:51:11.447Z,26.00
2016-08-16T05:52:11.808Z,27.00
2016-08-16T05:53:12.788Z,29.00
2016-08-16T05:54:12.753Z,30.00
2016-08-16T05:55:13.599Z,30.00
2016-08-16T05:56:14.384Z,31.00
2016-08-16T05:57:14.460Z,31.00
2016-08-16T05:58:15.183Z,25.00
2016-08-16T05:59:15.663Z,23.00
2016-08-16T06:00:16.055Z,29.00
2016-08-16T06:01:16.709Z,31.00
2016-08-16T06:02:17.239Z,32.00
2016-08-16T06:03:17.768Z,35.00
2016-08-16T06:04:18.310Z,35.00
2016-08-16T06:05:18.668Z,35.00
2016-08-16T06:06:19.344Z,35.00
2016-08-16T06:07:19.911Z,35.00
2016-08-16T06:08:20.272Z,36.00
2016-08-16T06:09:20.783Z,38.00
2016-08-16T06:10:21.622Z,39.00
2016-08-16T06:11:21.832Z,40.00
2016-08-16T06:12:22.382Z,40.00
2016-08-16T06:13:22.900Z,40.00
2016-08-16T06:14:23.754Z,40.00
2016-08-16T06:15:23.951Z,40.00
2016-08-16T06:16:24.619Z,39.00
2016-08-16T06:17:25.296Z,40.00
2016-08-16T06:18:25.676Z,40.00
2016-08-16T06:19:26.055Z,36.00
2016-08-16T06:20:26.597Z,35.00
2016-08-16T06:21:26.946Z,37.00
2016-08-16T06:22:27.775Z,39.00
2016-08-16T06:23:28.011Z,43.00
2016-08-16T06:24:29.007Z,45.00
2016-08-16T06:25:29.509Z,43.00
2016-08-16T06:26:29.604Z,38.00
2016-08-16T06:27:30.445Z,47.00
2016-08-16T06:28:30.941Z,46.00
2016-08-16T06:29:31.327Z,47.00
2016-08-16T06:30:32.009Z,48.00
2016-08-16T06:31:32.393Z,47.00
2016-08-16T06:32:33.064Z,48.00
2016-08-16T06:33:33.659Z,48.00
2016-08-16T06:34:33.825Z,50.00
2016-08-16T06:35:34.645Z,50.00
2016-08-16T06:36:36.385Z,50.00
2016-08-16T06:37:35.867Z,50.00
2016-08-16T06:38:36.111Z,44.00
2016-08-16T06:39:36.757Z,51.00
2016-08-16T06:40:37.141Z,50.00
2016-08-16T06:41:37.986Z,52.00
2016-08-16T06:42:38.340Z,52.00
2016-08-16T06:43:38.736Z,53.00
2016-08-16T06:44:39.406Z,54.00
2016-08-16T06:45:39.929Z,55.00
2016-08-16T06:46:40.315Z,56.00
2016-08-16T06:47:40.682Z,57.00
2016-08-16T06:48:41.535Z,40.00
2016-08-16T06:49:42.179Z,59.00
2016-08-16T06:50:42.732Z,55.00
2016-08-16T06:51:43.257Z,55.00
2016-08-16T06:52:43.461Z,55.00
2016-08-16T06:53:44.005Z,58.00
2016-08-16T06:54:44.967Z,58.00
2016-08-16T06:55:45.045Z,55.00
2016-08-16T06:56:45.566Z,55.00
2016-08-16T06:57:46.415Z,59.00
2016-08-16T06:58:46.634Z,61.00
2016-08-16T06:59:47.361Z,62.00
2016-08-16T07:00:47.691Z,56.00
2016-08-16T07:01:48.225Z,51.00
2016-08-16T07:02:49.057Z,48.00
2016-08-16T07:03:49.270Z,45.00
2016-08-16T07:04:49.978Z,49.00
2016-08-16T07:05:50.181Z,51.00
2016-08-16T07:07:51.243Z,61.00
2016-08-16T07:08:51.963Z,63.00
2016-08-16T07:09:52.329Z,65.00
2016-08-16T07:10:52.996Z,65.00
2016-08-16T07:11:53.825Z,62.00
2016-08-16T07:12:54.190Z,64.00
2016-08-16T07:13:54.749Z,65.00
2016-08-16T07:14:55.425Z,62.00
2016-08-16T07:15:55.624Z,67.00
2016-08-16T07:16:56.009Z,64.00
2016-08-16T07:17:56.679Z,58.00
2016-08-16T07:18:57.335Z,71.00
2016-08-16T07:19:58.162Z,63.00
2016-08-16T07:20:58.546Z,44.00
2016-08-16T07:21:59.097Z,55.00
2016-08-16T07:22:59.588Z,68.00
2016-08-16T07:23:59.978Z,73.00
2016-08-16T07:25:00.497Z,73.00
2016-08-16T07:26:01.056Z,70.00
2016-08-16T07:27:01.407Z,77.00
2016-08-16T07:28:02.077Z,78.00
2016-08-16T07:29:02.752Z,77.00
2016-08-16T07:30:03.129Z,75.00
2016-08-16T07:31:04.134Z,75.00
2016-08-16T07:32:04.193Z,77.00
2016-08-16T07:33:04.570Z,70.00
2016-08-16T07:34:05.118Z,74.00
2016-08-16T07:35:05.909Z,77.00
2016-08-16T07:36:06.295Z,81.00
2016-08-16T07:37:06.849Z,77.00
2016-08-16T07:38:07.233Z,80.00
2016-08-16T07:39:07.625Z,84.00
2016-08-16T07:40:08.254Z,83.00
2016-08-16T07:41:08.779Z,83.00
2016-08-16T07:42:09.478Z,83.00
2016-08-16T07:43:09.890Z,84.00
2016-08-16T07:44:10.371Z,85.00
2016-08-16T07:45:10.899Z,78.00
2016-08-16T07:46:11.570Z,86.00
2016-08-16T07:47:12.255Z,88.00
2016-08-16T07:48:12.951Z,89.00
2016-08-16T07:49:13.189Z,83.00
2016-08-16T07:50:13.563Z,81.00
2016-08-16T07:51:14.089Z,66.00
2016-08-16T07:52:14.770Z,88.00
2016-08-16T07:53:15.290Z,88.00
2016-08-16T07:54:15.523Z,88.00
2016-08-16T07:55:16.172Z,89.00
2016-08-16T07:56:17.012Z,88.00
2016-08-16T07:57:17.387Z,87.00
2016-08-16T07:58:17.902Z,85.00
2016-08-16T07:59:18.751Z,85.00
2016-08-16T08:00:18.953Z,86.00
2016-08-16T08:01:19.336Z,91.00
2016-08-16T08:02:19.856Z,92.00
2016-08-16T08:03:20.538Z,93.00
2016-08-16T08:04:21.365Z,84.00
2016-08-16T08:05:21.433Z,93.00
2016-08-16T08:06:21.864Z,93.00
2016-08-16T08:07:22.529Z,94.00
2016-08-16T08:08:23.190Z,94.00
2016-08-16T08:09:23.707Z,93.00
2016-08-16T08:10:24.235Z,92.00
2016-08-16T08:11:24.763Z,92.00
2016-08-16T08:12:25.305Z,92.00
2016-08-16T08:13:25.830Z,91.00
2016-08-16T08:14:26.038Z,91.00
2016-08-16T08:15:26.875Z,92.00
2016-08-16T08:16:27.377Z,93.00
2016-08-16T08:17:28.063Z,90.00
2016-08-16T08:18:28.312Z,91.00
2016-08-16T08:19:28.972Z,93.00
2016-08-16T08:20:29.802Z,93.00
2016-08-16T08:21:29.888Z,94.00
2016-08-16T08:22:30.440Z,94.00
2016-08-16T08:23:30.947Z,95.00
2016-08-16T08:24:31.465Z,96.00
2016-08-16T08:25:32.152Z,97.00
2016-08-16T08:26:32.824Z,98.00
2016-08-16T08:27:33.201Z,98.00
2016-08-16T08:28:33.746Z,98.00
2016-08-16T08:29:34.399Z,99.00
2016-08-16T08:30:34.502Z,93.00
2016-08-16T08:31:35.007Z,95.00
2016-08-16T08:32:35.866Z,96.00
2016-08-16T08:33:36.210Z,95.00
2016-08-16T08:34:36.923Z,97.00
2016-08-16T08:35:37.418Z,98.00
2016-08-16T08:36:37.799Z,96.00
2016-08-16T08:37:38.474Z,95.00
2016-08-16T08:38:38.743Z,95.00
2016-08-16T08:39:39.387Z,94.00
2016-08-16T08:40:40.055Z,95.00
2016-08-16T08:41:40.638Z,99.00
2016-08-16T08:42:41.164Z,99.00
2016-08-16T08:43:41.789Z,99.00
2016-08-16T08:44:42.325Z,99.00
2016-08-16T08:45:42.868Z,99.00
2016-08-16T08:46:43.233Z,99.00
2016-08-16T08:47:43.765Z,99.00
2016-08-16T08:48:44.430Z,99.00
2016-08-16T08:49:44.953Z,95.00
2016-08-16T08:50:45.212Z,94.00
2016-08-16T08:51:45.730Z,99.00
2016-08-16T08:52:46.381Z,99.00
2016-08-16T08:53:46.782Z,99.00
2016-08-16T08:54:47.147Z,99.00
2016-08-16T08:55:47.823Z,99.00
2016-08-16T08:56:48.509Z,99.00
2016-08-16T08:57:48.888Z,99.00
2016-08-16T08:58:51.665Z,99.00
2016-08-16T08:59:49.794Z,99.00
2016-08-16T09:00:50.525Z,99.00
2016-08-16T09:01:51.195Z,99.00
2016-08-16T09:02:51.535Z,99.00
2016-08-16T09:03:52.082Z,99.00
2016-08-16T09:04:52.577Z,99.00
2016-08-16T09:05:52.949Z,98.00
2016-08-16T09:06:53.926Z,99.00
2016-08-16T09:07:54.465Z,99.00
2016-08-16T09:08:54.848Z,99.00
2016-08-16T09:09:55.550Z,99.00
2016-08-16T09:10:55.771Z,99.00
2016-08-16T09:11:56.128Z,99.00
2016-08-16T09:12:56.821Z,99.00
2016-08-16T09:13:57.465Z,99.00
2016-08-16T09:14:57.842Z,99.00
2016-08-16T09:15:58.549Z,99.00
2016-08-16T09:16:59.357Z,99.00
2016-08-16T09:17:59.472Z,99.00
2016-08-16T09:18:59.951Z,99.00
2016-08-16T09:20:00.486Z,99.00
2016-08-16T09:21:01.190Z,99.00
2016-08-16T09:22:01.531Z,99.00
2016-08-16T09:23:02.220Z,99.00
2016-08-16T09:24:02.885Z,99.00
2016-08-16T09:25:03.139Z,99.00
2016-08-16T09:26:03.684Z,99.00
2016-08-16T09:27:04.189Z,99.00
2016-08-16T09:28:04.722Z,99.00
2016-08-16T09:29:05.519Z,99.00
2016-08-16T09:30:05.629Z,99.00
2016-08-16T09:31:06.278Z,99.00
2016-08-16T09:32:06.804Z,99.00
2016-08-16T09:33:07.521Z,99.00
2016-08-16T09:34:08.038Z,99.00
2016-08-16T09:35:08.424Z,99.00
2016-08-16T09:36:08.962Z,99.00
2016-08-16T09:37:09.747Z,99.00
2016-08-16T09:38:09.845Z,99.00
2016-08-16T09:39:10.521Z,99.00
2016-08-16T09:40:11.053Z,99.00
2016-08-16T09:41:11.436Z,99.00
2016-08-16T09:42:12.264Z,99.00
2016-08-16T09:43:12.762Z,99.00
2016-08-16T09:44:13.165Z,99.00
2016-08-16T09:45:13.675Z,99.00
2016-08-16T09:46:14.353Z,99.00
2016-08-16T09:47:14.605Z,99.00
2016-08-16T09:48:15.408Z,99.00
2016-08-16T09:49:15.928Z,99.00
2016-08-16T09:50:16.482Z,99.00
2016-08-16T09:51:16.992Z,99.00
2016-08-16T09:52:17.368Z,90.00
2016-08-16T09:53:18.062Z,99.00
2016-08-16T09:54:18.579Z,56.00
2016-08-16T09:55:19.242Z,32.00
2016-08-16T09:56:19.622Z,29.00
2016-08-16T09:57:20.145Z,27.00
2016-08-16T09:58:20.697Z,25.00
2016-08-16T09:59:21.053Z,25.00
2016-08-16T10:00:21.732Z,24.00
2016-08-16T10:01:22.281Z,24.00
2016-08-16T10:02:22.638Z,24.00
2016-08-16T10:03:23.026Z,23.00
2016-08-16T10:04:23.870Z,23.00
2016-08-16T10:05:24.219Z,23.00
2016-08-16T10:06:25.039Z,24.00
2016-08-16T10:07:25.271Z,24.00
2016-08-16T10:08:25.815Z,25.00
2016-08-16T10:09:26.393Z,26.00
2016-08-16T10:10:26.857Z,27.00
2016-08-16T10:11:27.708Z,28.00
2016-08-16T10:12:27.791Z,28.00
2016-08-16T10:13:28.772Z,28.00
2016-08-16T10:14:29.003Z,29.00
2016-08-16T10:15:29.498Z,31.00
2016-08-16T10:16:30.482Z,32.00
2016-08-16T10:17:30.572Z,33.00
2016-08-16T10:18:31.234Z,35.00
2016-08-16T10:19:31.634Z,37.00
2016-08-16T10:20:32.289Z,38.00
2016-08-16T10:21:32.684Z,38.00
2016-08-16T10:22:33.370Z,40.00
2016-08-16T10:23:33.892Z,99.00
2016-08-16T10:24:34.096Z,99.00
2016-08-16T10:25:34.792Z,48.00
2016-08-16T10:26:35.294Z,42.00
2016-08-16T10:27:35.981Z,41.00
2016-08-16T10:28:36.380Z,42.00
2016-08-16T10:29:37.025Z,42.00
2016-08-16T10:30:37.568Z,81.00
2016-08-16T10:31:38.095Z,40.00
2016-08-16T10:32:38.327Z,44.00
2016-08-16T10:33:39.155Z,99.00
2016-08-16T10:34:40.712Z,99.00
2016-08-16T10:35:40.066Z,99.00
2016-08-16T10:36:40.415Z,99.00
2016-08-16T10:37:41.103Z,99.00
2016-08-16T10:38:41.970Z,91.00
2016-08-16T10:39:42.156Z,52.00
2016-08-16T10:40:42.859Z,99.00
2016-08-16T10:41:43.358Z,99.00
2016-08-16T10:42:43.738Z,99.00
2016-08-16T10:43:44.411Z,99.00
2016-08-16T10:44:44.985Z,99.00
2016-08-16T10:45:45.201Z,99.00
2016-08-16T10:46:46.177Z,99.00
2016-08-16T10:47:46.384Z,99.00
2016-08-16T10:48:46.919Z,99.00
2016-08-16T10:49:47.767Z,99.00
2016-08-16T10:50:48.128Z,99.00
2016-08-16T10:51:48.677Z,99.00
2016-08-16T10:52:49.206Z,99.00
2016-08-16T10:53:49.549Z,99.00
2016-08-16T10:54:50.399Z,99.00
2016-08-16T10:55:50.926Z,99.00
2016-08-16T10:56:51.302Z,99.00
2016-08-16T10:57:51.672Z,99.00
2016-08-16T10:58:52.180Z,99.00
2016-08-16T10:59:52.722Z,99.00
2016-08-16T11:00:53.563Z,99.00
2016-08-16T11:01:54.243Z,99.00
2016-08-16T11:02:54.318Z,99.00
2016-08-16T11:03:55.269Z,99.00
2016-08-16T11:04:55.670Z,99.00
2016-08-16T11:05:56.087Z,99.00
2016-08-16T11:06:56.581Z,50.00
2016-08-16T11:08:53.295Z,30.00
2016-08-16T11:09:57.986Z,30.00
2016-08-16T11:10:58.669Z,30.00
2016-08-16T11:11:58.914Z,31.00
2016-08-16T11:12:59.442Z,31.00
2016-08-16T11:14:00.268Z,31.00
2016-08-16T11:15:00.775Z,30.00
2016-08-16T11:16:01.318Z,30.00
2016-08-16T11:17:01.692Z,32.00
2016-08-16T11:18:02.422Z,40.00
2016-08-16T11:19:02.906Z,52.00
2016-08-16T11:20:03.299Z,40.00
2016-08-16T11:21:03.683Z,45.00
2016-08-16T11:22:04.339Z,99.00
2016-08-16T11:23:05.180Z,99.00
2016-08-16T11:24:05.697Z,90.00
2016-08-16T11:25:06.230Z,34.00
2016-08-16T11:26:06.763Z,32.00
2016-08-16T11:27:07.132Z,32.00
2016-08-16T11:28:07.670Z,32.00
2016-08-16T11:29:08.032Z,32.00
2016-08-16T11:30:08.695Z,33.00
2016-08-16T11:31:09.374Z,34.00
2016-08-16T11:32:09.604Z,36.00
2016-08-16T11:33:10.311Z,60.00
2016-08-16T11:34:10.823Z,78.00
2016-08-16T11:35:11.637Z,99.00
2016-08-16T11:36:11.586Z,99.00
2016-08-16T11:37:12.431Z,99.00
2016-08-16T11:38:12.935Z,99.00
2016-08-16T11:39:13.619Z,38.00
2016-08-16T11:40:13.981Z,71.00
2016-08-16T11:41:14.511Z,99.00
2016-08-16T11:42:15.353Z,99.00
2016-08-16T11:43:15.425Z,99.00
2016-08-16T11:44:15.942Z,99.00
2016-08-16T11:45:16.764Z,99.00
2016-08-16T11:46:16.852Z,99.00
2016-08-16T11:47:17.545Z,99.00
2016-08-16T11:48:17.963Z,99.00
2016-08-16T11:49:18.739Z,99.00
2016-08-16T11:50:18.976Z,99.00
2016-08-16T11:51:20.108Z,99.00
2016-08-16T11:52:20.158Z,99.00
2016-08-16T11:53:20.892Z,99.00
2016-08-16T11:54:21.212Z,99.00
2016-08-16T11:55:21.606Z,99.00
2016-08-16T11:56:22.273Z,99.00
2016-08-16T11:57:22.957Z,99.00
2016-08-16T11:58:23.489Z,99.00
2016-08-16T11:59:23.713Z,99.00
2016-08-16T12:00:24.572Z,99.00
2016-08-16T12:01:25.212Z,99.00
2016-08-16T12:02:25.588Z,99.00
2016-08-16T12:03:26.117Z,99.00
2016-08-16T12:04:26.499Z,99.00
2016-08-16T12:05:27.032Z,99.00
2016-08-16T12:06:27.548Z,99.00
2016-08-16T12:07:28.082Z,99.00
2016-08-16T12:08:31.007Z,99.00
2016-08-16T12:09:28.989Z,98.00
2016-08-16T12:10:29.530Z,74.00
2016-08-16T12:11:30.332Z,52.00
2016-08-16T12:12:30.730Z,67.00
2016-08-16T12:13:31.388Z,97.00
2016-08-16T12:14:31.941Z,99.00
2016-08-16T12:15:32.310Z,99.00
2016-08-16T12:16:32.995Z,99.00
2016-08-16T12:17:33.408Z,43.00
2016-08-16T12:18:34.023Z,43.00
2016-08-16T12:19:34.701Z,39.00
2016-08-16T12:20:35.074Z,39.00
2016-08-16T12:21:35.459Z,55.00
2016-08-16T12:22:36.151Z,95.00
2016-08-16T12:23:36.524Z,99.00
2016-08-16T12:24:37.060Z,99.00
2016-08-16T12:25:37.864Z,99.00
2016-08-16T12:26:38.096Z,99.00
2016-08-16T12:27:38.627Z,99.00
2016-08-16T12:28:39.336Z,99.00
2016-08-16T12:29:39.550Z,99.00
2016-08-16T12:30:40.210Z,99.00
2016-08-16T12:31:40.798Z,99.00
2016-08-16T12:32:41.269Z,99.00
2016-08-16T12:33:41.651Z,99.00
2016-08-16T12:34:42.336Z,99.00
2016-08-16T12:35:42.904Z,99.00
2016-08-16T12:36:43.539Z,99.00
2016-08-16T12:37:44.221Z,99.00
2016-08-16T12:38:46.867Z,99.00
2016-08-16T12:39:45.118Z,99.00
2016-08-16T12:40:45.660Z,99.00
2016-08-16T12:41:46.169Z,99.00
2016-08-16T12:42:46.692Z,99.00
2016-08-16T12:43:47.078Z,99.00
2016-08-16T12:44:47.917Z,99.00
2016-08-16T12:45:48.180Z,99.00
2016-08-16T12:46:48.796Z,99.00
2016-08-16T12:47:49.362Z,99.00
2016-08-16T12:48:49.585Z,99.00
2016-08-16T12:49:50.381Z,99.00
2016-08-16T12:50:50.927Z,99.00
2016-08-16T12:51:51.581Z,99.00
2016-08-16T12:52:51.826Z,99.00
2016-08-16T12:53:52.386Z,99.00
2016-08-16T12:54:52.748Z,57.00
2016-08-16T12:55:53.552Z,33.00
2016-08-16T12:56:54.089Z,32.00
2016-08-16T12:57:54.740Z,31.00
2016-08-16T12:58:55.149Z,31.00
2016-08-16T12:59:55.648Z,32.00
2016-08-16T13:00:55.880Z,32.00
2016-08-16T13:01:56.584Z,33.00
2016-08-16T13:02:57.095Z,30.00
2016-08-16T13:03:57.784Z,29.00
2016-08-16T13:04:58.297Z,29.00
2016-08-16T13:05:58.691Z,30.00
2016-08-16T13:06:59.087Z,29.00
2016-08-16T13:07:59.875Z,96.00
2016-08-16T13:09:00.268Z,99.00
2016-08-16T13:10:00.942Z,99.00
2016-08-16T13:11:01.323Z,99.00